createdAt,value
2023-03-17T00:02:39.179Z,65.33
2023-03-17T00:07:48.406Z,65.43
2023-03-17T00:12:56.793Z,65.59
2023-03-17T00:18:05.468Z,65.71
2023-03-17T00:23:19.311Z,65.83
2023-03-17T00:28:29.202Z,66.04
2023-03-17T00:33:38.388Z,66.01
2023-03-17T00:38:47.742Z,66.37
2023-03-17T00:43:56.005Z,66.45
2023-03-17T00:49:05.652Z,66.37
2023-03-17T00:54:15.959Z,66.53
2023-03-17T00:59:37.752Z,66.37
2023-03-17T01:04:59.544Z,66.56
2023-03-17T01:10:19.929Z,66.46
2023-03-17T01:15:30.746Z,66.57
2023-03-17T01:20:39.884Z,66.65
2023-03-17T01:25:48.162Z,66.64
2023-03-17T01:30:57.270Z,66.63
2023-03-17T01:36:05.915Z,66.48
2023-03-17T01:41:14.834Z,66.61
2023-03-17T01:46:30.590Z,66.65
2023-03-17T01:51:44.832Z,66.67
2023-03-17T01:56:55.664Z,66.74
2023-03-17T02:02:11.246Z,66.40
2023-03-17T02:07:19.255Z,66.27
2023-03-17T02:12:29.388Z,66.29
2023-03-17T02:17:37.540Z,66.13
2023-03-17T02:22:44.933Z,66.14
2023-03-17T02:27:58.697Z,66.12
2023-03-17T02:33:06.465Z,66.18
2023-03-17T02:38:14.098Z,66.05
2023-03-17T02:43:21.893Z,66.02
2023-03-17T02:48:31.067Z,66.20
2023-03-17T02:53:39.212Z,66.14
2023-03-17T02:58:47.815Z,66.15
2023-03-17T03:03:55.991Z,66.18
2023-03-17T03:09:04.309Z,66.05
2023-03-17T03:14:13.205Z,66.19
2023-03-17T03:19:22.820Z,66.33
2023-03-17T03:24:30.974Z,66.24
2023-03-17T03:29:39.292Z,66.35
2023-03-17T03:34:47.578Z,66.68
2023-03-17T03:39:56.205Z,66.56
2023-03-17T03:45:04.657Z,66.92
2023-03-17T03:50:14.755Z,66.82
2023-03-17T03:55:23.230Z,66.97
2023-03-17T04:00:32.805Z,66.96
2023-03-17T04:05:42.324Z,67.12
2023-03-17T04:10:50.499Z,67.05
2023-03-17T04:15:58.335Z,67.04
2023-03-17T04:21:08.111Z,66.99
2023-03-17T04:26:18.225Z,67.23
2023-03-17T04:31:26.299Z,67.25
2023-03-17T04:36:33.925Z,67.22
2023-03-17T04:41:41.795Z,67.12
2023-03-17T04:46:50.172Z,67.13
2023-03-17T04:51:58.868Z,67.27
2023-03-17T04:57:07.758Z,67.54
2023-03-17T05:02:16.260Z,67.57
2023-03-17T05:07:24.826Z,67.75
2023-03-17T05:12:33.255Z,67.82
2023-03-17T05:17:42.188Z,67.78
2023-03-17T05:22:50.380Z,68.05
2023-03-17T05:27:59.106Z,67.98
2023-03-17T05:33:08.174Z,68.10
2023-03-17T05:38:17.584Z,67.99
2023-03-17T05:43:25.817Z,68.08
2023-03-17T05:48:34.027Z,68.22
2023-03-17T05:53:42.353Z,68.38
2023-03-17T05:58:50.691Z,68.43
2023-03-17T06:04:01.835Z,68.61
2023-03-17T06:09:10.944Z,68.48
2023-03-17T06:14:18.677Z,68.74
2023-03-17T06:19:27.893Z,68.68
2023-03-17T06:24:35.574Z,68.61
2023-03-17T06:29:43.137Z,68.65
2023-03-17T06:34:51.682Z,68.74
2023-03-17T06:40:01.380Z,68.92
2023-03-17T06:45:10.746Z,68.88
2023-03-17T06:50:19.328Z,68.94
2023-03-17T06:55:27.802Z,68.99
2023-03-17T07:00:35.985Z,69.02
2023-03-17T07:05:44.562Z,69.29
2023-03-17T07:10:53.200Z,69.17
2023-03-17T07:16:01.622Z,69.44
2023-03-17T07:21:10.973Z,69.45
2023-03-17T07:28:45.612Z,69.57
2023-03-17T07:34:09.023Z,70.24
2023-03-17T07:39:17.790Z,70.23
2023-03-17T07:44:27.994Z,70.26
2023-03-17T07:49:41.706Z,70.13
2023-03-17T07:54:52.003Z,70.10
2023-03-17T08:00:00.275Z,70.03
2023-03-17T08:05:09.455Z,69.98
2023-03-17T08:10:18.719Z,69.98
2023-03-17T08:15:27.120Z,69.96
2023-03-17T08:20:36.069Z,69.91
2023-03-17T08:25:44.307Z,69.92
2023-03-17T08:30:52.163Z,69.78
2023-03-17T08:36:00.626Z,69.60
2023-03-17T08:41:12.719Z,69.73
2023-03-17T08:46:23.385Z,69.59
2023-03-17T08:51:34.734Z,69.48
2023-03-17T08:56:43.667Z,69.33
2023-03-17T09:01:52.237Z,69.26
2023-03-17T09:07:04.072Z,69.40
2023-03-17T09:12:14.105Z,69.37
2023-03-17T09:17:22.411Z,69.24
2023-03-17T09:22:31.136Z,69.09
2023-03-17T09:27:40.346Z,68.67
2023-03-17T09:32:48.896Z,68.45
2023-03-17T09:37:56.829Z,67.86
2023-03-17T09:43:19.036Z,67.27
2023-03-17T09:48:49.207Z,66.80
2023-03-17T09:54:01.858Z,65.59
2023-03-17T09:59:30.346Z,65.50
2023-03-17T10:04:38.395Z,65.60
2023-03-17T10:09:48.773Z,65.53
2023-03-17T10:15:04.308Z,65.63
2023-03-17T10:20:26.165Z,65.60
2023-03-17T10:25:36.825Z,65.41
2023-03-17T10:30:45.428Z,65.02
2023-03-17T10:35:54.601Z,64.58
2023-03-17T10:41:10.236Z,64.31
2023-03-17T10:46:26.425Z,63.95
2023-03-17T10:51:37.356Z,63.55
2023-03-17T10:56:48.866Z,62.94
2023-03-17T11:02:01.167Z,62.79
2023-03-17T11:07:11.318Z,62.42
2023-03-17T11:12:28.296Z,61.91
2023-03-17T11:17:53.866Z,61.49
2023-03-17T11:23:09.270Z,61.25
2023-03-17T11:28:22.825Z,61.20
2023-03-17T11:33:53.235Z,60.45
2023-03-17T11:39:09.384Z,59.72
2023-03-17T11:44:42.252Z,59.33
2023-03-17T11:49:55.154Z,58.57
2023-03-17T11:55:15.559Z,58.36
2023-03-17T12:00:34.332Z,58.06
2023-03-17T12:05:45.190Z,57.78
2023-03-17T12:10:56.952Z,58.09
2023-03-17T12:16:11.704Z,58.38
2023-03-17T12:21:27.544Z,56.75
2023-03-17T12:26:43.569Z,57.31
2023-03-17T12:32:03.753Z,57.01
2023-03-17T12:37:12.941Z,56.71
2023-03-17T12:42:38.667Z,56.68
2023-03-17T12:48:09.486Z,56.01
2023-03-17T12:53:30.655Z,54.90
2023-03-17T12:58:42.282Z,55.46
2023-03-17T13:04:07.453Z,55.56
2023-03-17T13:09:53.695Z,54.79
2023-03-17T13:15:03.086Z,54.61
2023-03-17T13:20:20.906Z,54.75
2023-03-17T13:25:54.004Z,54.13
2023-03-17T13:31:13.636Z,53.95
2023-03-17T13:36:31.121Z,53.75
2023-03-17T13:41:51.830Z,53.94
2023-03-17T13:47:17.769Z,53.50
2023-03-17T13:52:32.721Z,53.30
2023-03-17T13:57:43.307Z,53.30
2023-03-17T14:02:59.486Z,53.14
2023-03-17T14:08:17.094Z,52.72
2023-03-17T14:13:28.844Z,52.56
2023-03-17T14:18:40.324Z,52.50
2023-03-17T14:23:56.799Z,52.56
2023-03-17T14:29:06.747Z,52.19
2023-03-17T14:34:18.119Z,52.24
2023-03-17T14:39:29.783Z,52.28
2023-03-17T14:44:47.717Z,52.23
2023-03-17T14:49:57.288Z,52.19
2023-03-17T14:55:05.366Z,52.42
2023-03-17T15:00:39.091Z,52.13
2023-03-17T15:05:48.532Z,51.47
2023-03-17T15:10:59.316Z,51.54
2023-03-17T15:16:17.271Z,51.22
2023-03-17T15:21:34.508Z,50.87
2023-03-17T15:26:43.997Z,50.71
2023-03-17T15:31:52.969Z,50.64
2023-03-17T15:37:01.876Z,50.72
2023-03-17T15:42:09.623Z,50.53
2023-03-17T15:47:19.246Z,50.62
2023-03-17T15:52:29.375Z,50.50
2023-03-17T15:57:37.756Z,50.48
2023-03-17T16:02:46.311Z,50.29
2023-03-17T16:07:56.074Z,50.34
2023-03-17T16:13:03.669Z,50.06
2023-03-17T16:18:17.353Z,50.17
2023-03-17T16:23:28.380Z,50.35
2023-03-17T16:28:36.860Z,50.38
2023-03-17T16:33:44.383Z,50.13
2023-03-17T16:38:52.474Z,50.45
2023-03-17T16:44:03.428Z,50.20
2023-03-17T16:49:14.450Z,50.23
2023-03-17T16:54:22.462Z,50.44
2023-03-17T16:59:32.237Z,50.68
2023-03-17T17:04:41.565Z,50.74
2023-03-17T17:09:48.818Z,51.08
2023-03-17T17:14:57.001Z,51.42
2023-03-17T17:20:06.028Z,51.50
2023-03-17T17:25:14.463Z,51.56
2023-03-17T17:30:26.102Z,51.80
2023-03-17T17:35:36.125Z,52.00
2023-03-17T17:40:44.382Z,51.90
2023-03-17T17:45:52.998Z,52.18
2023-03-17T17:51:02.792Z,52.11
2023-03-17T17:56:13.872Z,52.26
2023-03-17T18:01:23.107Z,52.69
2023-03-17T18:06:32.659Z,52.61
2023-03-17T18:11:42.851Z,52.91
2023-03-17T18:16:51.976Z,52.85
2023-03-17T18:22:00.218Z,53.02
2023-03-17T18:27:10.078Z,53.24
2023-03-17T18:32:19.248Z,53.38
2023-03-17T18:37:31.105Z,53.52
2023-03-17T18:42:39.394Z,53.49
2023-03-17T18:47:48.404Z,53.67
2023-03-17T18:52:57.898Z,53.72
2023-03-17T18:58:06.798Z,53.51
2023-03-17T19:03:16.437Z,53.81
2023-03-17T19:08:25.776Z,53.60
2023-03-17T19:13:34.286Z,53.89
2023-03-17T19:18:43.473Z,54.03
2023-03-17T19:23:52.598Z,53.82
2023-03-17T19:29:01.023Z,53.72
2023-03-17T19:34:10.430Z,53.96
2023-03-17T19:39:19.041Z,54.05
2023-03-17T19:44:27.627Z,54.10
2023-03-17T19:49:37.227Z,53.93
2023-03-17T19:54:46.480Z,54.06
2023-03-17T19:59:54.831Z,53.91
2023-03-17T20:05:02.496Z,54.01
2023-03-17T20:10:12.736Z,53.86
2023-03-17T20:15:20.425Z,53.51
2023-03-17T20:20:28.929Z,53.59
2023-03-17T20:25:37.818Z,53.31
2023-03-17T20:30:48.639Z,53.50
2023-03-17T20:35:58.253Z,53.43
2023-03-17T20:41:14.449Z,53.53
2023-03-17T20:46:25.072Z,53.36
2023-03-17T20:51:32.734Z,53.38
2023-03-17T20:56:41.884Z,53.49
2023-03-17T21:01:50.425Z,53.20
2023-03-17T21:06:59.420Z,53.35
2023-03-17T21:12:08.033Z,53.43
2023-03-17T21:17:18.399Z,53.57
2023-03-17T21:22:27.016Z,53.45
2023-03-17T21:27:37.312Z,53.22
2023-03-17T21:32:46.211Z,53.34
2023-03-17T21:37:55.132Z,53.27
2023-03-17T21:43:02.574Z,53.16
2023-03-17T21:48:11.724Z,53.13
2023-03-17T21:53:20.575Z,53.25
2023-03-17T21:58:29.696Z,53.25
2023-03-17T22:03:40.180Z,53.19
2023-03-17T22:08:51.123Z,53.39
2023-03-17T22:14:00.177Z,53.15
2023-03-17T22:19:10.336Z,53.13
2023-03-17T22:24:19.277Z,53.17
2023-03-17T22:29:28.301Z,53.20
2023-03-17T22:34:37.213Z,52.99
2023-03-17T22:39:45.942Z,52.84
2023-03-17T22:44:54.500Z,52.81
2023-03-17T22:50:03.157Z,52.95
2023-03-17T22:55:12.685Z,52.81
2023-03-17T23:00:21.917Z,52.83
2023-03-17T23:05:30.159Z,52.78
2023-03-17T23:10:40.332Z,52.69
2023-03-17T23:15:47.896Z,52.69
2023-03-17T23:20:55.510Z,52.86
2023-03-17T23:26:03.482Z,52.56
2023-03-17T23:31:11.416Z,52.51
2023-03-17T23:36:19.890Z,52.34
2023-03-17T23:41:27.465Z,52.38
2023-03-17T23:46:36.103Z,52.23
2023-03-17T23:51:44.453Z,52.14
2023-03-17T23:56:53.083Z,52.20
